sensor_id;sensor_type;location;lat;lon;timestamp;P1;durP1;ratioP1;P2;durP2;ratioP2
18793;SDS011;29610;49.022;12.114;2024-03-08T00:00:32;28.90;;;14.63;;
18793;SDS011;29610;49.022;12.114;2024-03-08T00:03:01;30.03;;;16.30;;
18793;SDS011;29610;49.022;12.114;2024-03-08T00:05:31;30.60;;;14.53;;
18793;SDS011;29610;49.022;12.114;2024-03-08T00:08:00;28.57;;;14.67;;
18793;SDS011;29610;49.022;12.114;2024-03-08T00:10:28;33.93;;;15.50;;
18793;SDS011;29610;49.022;12.114;2024-03-08T00:12:56;31.10;;;14.93;;
18793;SDS011;29610;49.022;12.114;2024-03-08T00:15:25;32.83;;;14.77;;
18793;SDS011;29610;49.022;12.114;2024-03-08T00:17:56;29.30;;;15.60;;
18793;SDS011;29610;49.022;12.114;2024-03-08T00:20:26;31.37;;;16.50;;
18793;SDS011;29610;49.022;12.114;2024-03-08T00:22:54;29.07;;;14.87;;
18793;SDS011;29610;49.022;12.114;2024-03-08T00:25:24;36.50;;;15.37;;
18793;SDS011;29610;49.022;12.114;2024-03-08T00:27:52;28.07;;;14.80;;
18793;SDS011;29610;49.022;12.114;2024-03-08T00:30:22;31.53;;;15.10;;
18793;SDS011;29610;49.022;12.114;2024-03-08T00:32:51;29.87;;;15.77;;
18793;SDS011;29610;49.022;12.114;2024-03-08T00:35:20;33.87;;;15.77;;
18793;SDS011;29610;49.022;12.114;2024-03-08T00:37:50;35.70;;;14.43;;
18793;SDS011;29610;49.022;12.114;2024-03-08T00:40:18;28.50;;;14.60;;
18793;SDS011;29610;49.022;12.114;2024-03-08T00:42:47;36.23;;;17.60;;
18793;SDS011;29610;49.022;12.114;2024-03-08T00:45:15;25.97;;;14.37;;
18793;SDS011;29610;49.022;12.114;2024-03-08T00:47:43;29.57;;;14.57;;
18793;SDS011;29610;49.022;12.114;2024-03-08T00:50:12;39.77;;;17.83;;
18793;SDS011;29610;49.022;12.114;2024-03-08T00:52:40;33.27;;;13.93;;
18793;SDS011;29610;49.022;12.114;2024-03-08T00:55:10;29.03;;;15.33;;
18793;SDS011;29610;49.022;12.114;2024-03-08T00:57:38;32.00;;;16.37;;
18793;SDS011;29610;49.022;12.114;2024-03-08T01:00:07;30.50;;;16.80;;
18793;SDS011;29610;49.022;12.114;2024-03-08T01:02:39;31.97;;;14.47;;
18793;SDS011;29610;49.022;12.114;2024-03-08T01:05:07;36.40;;;16.43;;
18793;SDS011;29610;49.022;12.114;2024-03-08T01:07:36;34.60;;;15.87;;
18793;SDS011;29610;49.022;12.114;2024-03-08T01:10:04;38.17;;;17.10;;
18793;SDS011;29610;49.022;12.114;2024-03-08T01:12:38;33.93;;;15.50;;
18793;SDS011;29610;49.022;12.114;2024-03-08T01:15:07;31.00;;;15.73;;
18793;SDS011;29610;49.022;12.114;2024-03-08T01:17:38;36.30;;;16.13;;
18793;SDS011;29610;49.022;12.114;2024-03-08T01:20:07;37.53;;;16.57;;
18793;SDS011;29610;49.022;12.114;2024-03-08T01:22:37;36.83;;;16.70;;
18793;SDS011;29610;49.022;12.114;2024-03-08T01:25:06;31.53;;;15.53;;
18793;SDS011;29610;49.022;12.114;2024-03-08T01:27:35;31.93;;;17.70;;
18793;SDS011;29610;49.022;12.114;2024-03-08T01:30:05;33.97;;;17.07;;
18793;SDS011;29610;49.022;12.114;2024-03-08T01:32:35;32.60;;;15.43;;
18793;SDS011;29610;49.022;12.114;2024-03-08T01:35:05;41.23;;;17.10;;
18793;SDS011;29610;49.022;12.114;2024-03-08T01:37:36;30.50;;;16.93;;
18793;SDS011;29610;49.022;12.114;2024-03-08T01:40:05;41.13;;;17.70;;
18793;SDS011;29610;49.022;12.114;2024-03-08T01:42:34;34.93;;;16.10;;
18793;SDS011;29610;49.022;12.114;2024-03-08T01:45:06;31.63;;;16.73;;
18793;SDS011;29610;49.022;12.114;2024-03-08T01:47:35;30.23;;;14.73;;
18793;SDS011;29610;49.022;12.114;2024-03-08T01:50:05;33.83;;;16.40;;
18793;SDS011;29610;49.022;12.114;2024-03-08T01:52:35;31.27;;;16.20;;
18793;SDS011;29610;49.022;12.114;2024-03-08T01:55:05;31.80;;;17.40;;
18793;SDS011;29610;49.022;12.114;2024-03-08T01:57:34;39.60;;;16.60;;
18793;SDS011;29610;49.022;12.114;2024-03-08T02:00:06;38.00;;;18.17;;
18793;SDS011;29610;49.022;12.114;2024-03-08T02:02:37;34.40;;;16.87;;
18793;SDS011;29610;49.022;12.114;2024-03-08T02:05:09;32.47;;;16.20;;
18793;SDS011;29610;49.022;12.114;2024-03-08T02:07:38;36.07;;;19.27;;
18793;SDS011;29610;49.022;12.114;2024-03-08T02:10:10;37.53;;;18.67;;
18793;SDS011;29610;49.022;12.114;2024-03-08T02:12:40;34.13;;;18.07;;
18793;SDS011;29610;49.022;12.114;2024-03-08T02:15:10;38.80;;;15.77;;
18793;SDS011;29610;49.022;12.114;2024-03-08T02:17:38;30.70;;;17.57;;
18793;SDS011;29610;49.022;12.114;2024-03-08T02:20:07;35.80;;;16.70;;
18793;SDS011;29610;49.022;12.114;2024-03-08T02:22:40;34.10;;;16.80;;
18793;SDS011;29610;49.022;12.114;2024-03-08T02:25:09;34.03;;;17.70;;
18793;SDS011;29610;49.022;12.114;2024-03-08T02:27:38;31.15;;;14.95;;
18793;SDS011;29610;49.022;12.114;2024-03-08T02:30:07;34.17;;;16.90;;
18793;SDS011;29610;49.022;12.114;2024-03-08T02:32:39;36.27;;;17.93;;
18793;SDS011;29610;49.022;12.114;2024-03-08T02:35:07;31.27;;;15.50;;
18793;SDS011;29610;49.022;12.114;2024-03-08T02:37:36;33.07;;;15.63;;
18793;SDS011;29610;49.022;12.114;2024-03-08T02:40:06;33.65;;;16.90;;
18793;SDS011;29610;49.022;12.114;2024-03-08T02:42:35;34.13;;;16.13;;
18793;SDS011;29610;49.022;12.114;2024-03-08T02:45:04;28.63;;;15.27;;
18793;SDS011;29610;49.022;12.114;2024-03-08T02:47:36;36.13;;;17.43;;
18793;SDS011;29610;49.022;12.114;2024-03-08T02:50:05;34.60;;;17.30;;
18793;SDS011;29610;49.022;12.114;2024-03-08T02:52:34;40.10;;;17.53;;
18793;SDS011;29610;49.022;12.114;2024-03-08T02:55:03;34.67;;;16.23;;
18793;SDS011;29610;49.022;12.114;2024-03-08T02:57:37;39.77;;;16.17;;
18793;SDS011;29610;49.022;12.114;2024-03-08T03:00:07;34.97;;;15.97;;
18793;SDS011;29610;49.022;12.114;2024-03-08T03:02:36;37.50;;;17.17;;
18793;SDS011;29610;49.022;12.114;2024-03-08T03:05:05;33.97;;;17.13;;
18793;SDS011;29610;49.022;12.114;2024-03-08T03:07:36;33.97;;;17.70;;
18793;SDS011;29610;49.022;12.114;2024-03-08T03:10:06;36.73;;;18.33;;
18793;SDS011;29610;49.022;12.114;2024-03-08T03:12:35;39.13;;;17.40;;
18793;SDS011;29610;49.022;12.114;2024-03-08T03:15:04;33.60;;;17.73;;
18793;SDS011;29610;49.022;12.114;2024-03-08T03:17:33;31.90;;;16.83;;
18793;SDS011;29610;49.022;12.114;2024-03-08T03:20:02;37.00;;;18.17;;
18793;SDS011;29610;49.022;12.114;2024-03-08T03:22:36;39.17;;;17.63;;
18793;SDS011;29610;49.022;12.114;2024-03-08T03:25:06;36.63;;;17.47;;
18793;SDS011;29610;49.022;12.114;2024-03-08T03:27:36;37.03;;;16.30;;
18793;SDS011;29610;49.022;12.114;2024-03-08T03:30:05;34.43;;;16.13;;
18793;SDS011;29610;49.022;12.114;2024-03-08T03:32:47;32.00;;;15.20;;
18793;SDS011;29610;49.022;12.114;2024-03-08T03:35:17;33.30;;;16.80;;
18793;SDS011;29610;49.022;12.114;2024-03-08T03:37:47;42.57;;;17.40;;
18793;SDS011;29610;49.022;12.114;2024-03-08T03:40:29;33.40;;;16.47;;
18793;SDS011;29610;49.022;12.114;2024-03-08T03:42:57;33.30;;;16.13;;
18793;SDS011;29610;49.022;12.114;2024-03-08T03:45:26;32.70;;;16.40;;
18793;SDS011;29610;49.022;12.114;2024-03-08T03:47:54;42.37;;;19.03;;
18793;SDS011;29610;49.022;12.114;2024-03-08T03:50:23;32.77;;;15.80;;
18793;SDS011;29610;49.022;12.114;2024-03-08T03:52:51;35.60;;;17.47;;
18793;SDS011;29610;49.022;12.114;2024-03-08T03:55:19;38.33;;;18.43;;
18793;SDS011;29610;49.022;12.114;2024-03-08T03:57:49;31.50;;;17.50;;
18793;SDS011;29610;49.022;12.114;2024-03-08T04:00:18;38.47;;;17.88;;
18793;SDS011;29610;49.022;12.114;2024-03-08T04:02:47;30.57;;;16.07;;
18793;SDS011;29610;49.022;12.114;2024-03-08T04:05:15;33.47;;;16.03;;
18793;SDS011;29610;49.022;12.114;2024-03-08T04:07:44;36.00;;;17.43;;
18793;SDS011;29610;49.022;12.114;2024-03-08T04:10:12;38.53;;;18.23;;
18793;SDS011;29610;49.022;12.114;2024-03-08T04:12:41;35.17;;;18.00;;
18793;SDS011;29610;49.022;12.114;2024-03-08T04:15:10;33.27;;;16.87;;
18793;SDS011;29610;49.022;12.114;2024-03-08T04:17:38;38.30;;;17.77;;
18793;SDS011;29610;49.022;12.114;2024-03-08T04:20:07;35.63;;;19.70;;
18793;SDS011;29610;49.022;12.114;2024-03-08T04:22:36;36.87;;;17.57;;
18793;SDS011;29610;49.022;12.114;2024-03-08T04:25:06;34.30;;;16.50;;
18793;SDS011;29610;49.022;12.114;2024-03-08T04:27:35;33.07;;;16.40;;
18793;SDS011;29610;49.022;12.114;2024-03-08T04:30:04;41.60;;;18.93;;
18793;SDS011;29610;49.022;12.114;2024-03-08T04:32:36;35.90;;;17.23;;
18793;SDS011;29610;49.022;12.114;2024-03-08T04:35:05;37.47;;;17.73;;
18793;SDS011;29610;49.022;12.114;2024-03-08T04:37:34;43.07;;;20.20;;
18793;SDS011;29610;49.022;12.114;2024-03-08T04:40:02;43.90;;;18.50;;
18793;SDS011;29610;49.022;12.114;2024-03-08T04:42:32;33.70;;;17.70;;
18793;SDS011;29610;49.022;12.114;2024-03-08T04:45:02;42.63;;;18.97;;
18793;SDS011;29610;49.022;12.114;2024-03-08T04:47:31;38.63;;;20.23;;
18793;SDS011;29610;49.022;12.114;2024-03-08T04:50:00;38.67;;;19.20;;
18793;SDS011;29610;49.022;12.114;2024-03-08T04:52:28;36.57;;;17.57;;
18793;SDS011;29610;49.022;12.114;2024-03-08T04:54:57;36.07;;;18.13;;
18793;SDS011;29610;49.022;12.114;2024-03-08T04:57:25;39.27;;;19.97;;
18793;SDS011;29610;49.022;12.114;2024-03-08T04:59:54;34.37;;;18.57;;
18793;SDS011;29610;49.022;12.114;2024-03-08T05:02:22;37.87;;;19.30;;
18793;SDS011;29610;49.022;12.114;2024-03-08T05:04:50;39.10;;;17.10;;
18793;SDS011;29610;49.022;12.114;2024-03-08T05:07:19;37.45;;;18.88;;
18793;SDS011;29610;49.022;12.114;2024-03-08T05:09:47;33.73;;;17.73;;
18793;SDS011;29610;49.022;12.114;2024-03-08T05:12:18;38.40;;;18.95;;
18793;SDS011;29610;49.022;12.114;2024-03-08T05:14:46;34.03;;;18.17;;
18793;SDS011;29610;49.022;12.114;2024-03-08T05:17:16;42.72;;;18.85;;
18793;SDS011;29610;49.022;12.114;2024-03-08T05:19:44;38.00;;;18.90;;
18793;SDS011;29610;49.022;12.114;2024-03-08T05:22:13;32.27;;;16.00;;
18793;SDS011;29610;49.022;12.114;2024-03-08T05:24:42;35.57;;;16.20;;
18793;SDS011;29610;49.022;12.114;2024-03-08T05:27:10;28.73;;;16.63;;
18793;SDS011;29610;49.022;12.114;2024-03-08T05:29:39;39.73;;;18.33;;
18793;SDS011;29610;49.022;12.114;2024-03-08T05:32:07;37.60;;;18.23;;
18793;SDS011;29610;49.022;12.114;2024-03-08T05:34:36;40.73;;;20.27;;
18793;SDS011;29610;49.022;12.114;2024-03-08T05:37:04;39.93;;;18.73;;
18793;SDS011;29610;49.022;12.114;2024-03-08T05:39:33;38.57;;;18.17;;
18793;SDS011;29610;49.022;12.114;2024-03-08T05:42:03;41.40;;;18.80;;
18793;SDS011;29610;49.022;12.114;2024-03-08T05:44:31;40.57;;;19.10;;
18793;SDS011;29610;49.022;12.114;2024-03-08T05:47:00;42.05;;;19.73;;
18793;SDS011;29610;49.022;12.114;2024-03-08T05:49:28;39.55;;;18.02;;
18793;SDS011;29610;49.022;12.114;2024-03-08T05:51:56;40.40;;;19.17;;
18793;SDS011;29610;49.022;12.114;2024-03-08T05:54:26;42.78;;;17.80;;
18793;SDS011;29610;49.022;12.114;2024-03-08T05:56:54;45.37;;;19.30;;
18793;SDS011;29610;49.022;12.114;2024-03-08T05:59:24;35.10;;;17.47;;
18793;SDS011;29610;49.022;12.114;2024-03-08T06:01:53;37.00;;;18.60;;
18793;SDS011;29610;49.022;12.114;2024-03-08T06:04:23;39.03;;;18.63;;
18793;SDS011;29610;49.022;12.114;2024-03-08T06:06:51;39.30;;;16.90;;
18793;SDS011;29610;49.022;12.114;2024-03-08T06:09:22;41.93;;;19.33;;
18793;SDS011;29610;49.022;12.114;2024-03-08T06:11:51;36.57;;;18.17;;
18793;SDS011;29610;49.022;12.114;2024-03-08T06:14:20;37.60;;;18.73;;
18793;SDS011;29610;49.022;12.114;2024-03-08T06:16:50;32.65;;;18.55;;
18793;SDS011;29610;49.022;12.114;2024-03-08T06:19:19;38.80;;;18.93;;
18793;SDS011;29610;49.022;12.114;2024-03-08T06:21:47;36.93;;;18.87;;
18793;SDS011;29610;49.022;12.114;2024-03-08T06:24:15;40.37;;;17.77;;
18793;SDS011;29610;49.022;12.114;2024-03-08T06:26:44;47.23;;;20.03;;
18793;SDS011;29610;49.022;12.114;2024-03-08T06:29:12;41.73;;;18.90;;
18793;SDS011;29610;49.022;12.114;2024-03-08T06:31:41;40.27;;;19.33;;
18793;SDS011;29610;49.022;12.114;2024-03-08T06:34:11;38.23;;;19.43;;
18793;SDS011;29610;49.022;12.114;2024-03-08T06:36:39;42.37;;;19.80;;
18793;SDS011;29610;49.022;12.114;2024-03-08T06:39:07;40.33;;;19.83;;
18793;SDS011;29610;49.022;12.114;2024-03-08T06:41:37;39.53;;;20.57;;
18793;SDS011;29610;49.022;12.114;2024-03-08T06:44:05;42.70;;;20.03;;
18793;SDS011;29610;49.022;12.114;2024-03-08T06:46:35;45.77;;;21.80;;
18793;SDS011;29610;49.022;12.114;2024-03-08T06:49:04;41.27;;;20.93;;
18793;SDS011;29610;49.022;12.114;2024-03-08T06:51:34;42.70;;;20.40;;
18793;SDS011;29610;49.022;12.114;2024-03-08T06:54:03;44.80;;;20.23;;
18793;SDS011;29610;49.022;12.114;2024-03-08T06:56:35;40.90;;;21.97;;
18793;SDS011;29610;49.022;12.114;2024-03-08T06:59:04;39.77;;;21.10;;
18793;SDS011;29610;49.022;12.114;2024-03-08T07:01:32;43.47;;;20.77;;
18793;SDS011;29610;49.022;12.114;2024-03-08T07:04:03;41.70;;;21.33;;
18793;SDS011;29610;49.022;12.114;2024-03-08T07:06:32;37.17;;;19.20;;
18793;SDS011;29610;49.022;12.114;2024-03-08T07:09:03;47.33;;;23.03;;
18793;SDS011;29610;49.022;12.114;2024-03-08T07:11:31;44.37;;;21.83;;
18793;SDS011;29610;49.022;12.114;2024-03-08T07:14:01;40.23;;;21.00;;
18793;SDS011;29610;49.022;12.114;2024-03-08T07:16:32;45.10;;;20.50;;
18793;SDS011;29610;49.022;12.114;2024-03-08T07:19:00;47.30;;;22.30;;
18793;SDS011;29610;49.022;12.114;2024-03-08T07:21:30;42.67;;;22.70;;
18793;SDS011;29610;49.022;12.114;2024-03-08T07:24:00;49.57;;;21.57;;
18793;SDS011;29610;49.022;12.114;2024-03-08T07:26:44;43.47;;;20.53;;
18793;SDS011;29610;49.022;12.114;2024-03-08T07:29:16;43.17;;;19.40;;
18793;SDS011;29610;49.022;12.114;2024-03-08T07:31:44;47.73;;;20.97;;
18793;SDS011;29610;49.022;12.114;2024-03-08T07:34:21;38.40;;;20.43;;
18793;SDS011;29610;49.022;12.114;2024-03-08T07:36:49;42.00;;;19.33;;
18793;SDS011;29610;49.022;12.114;2024-03-08T07:39:19;37.80;;;18.53;;
18793;SDS011;29610;49.022;12.114;2024-03-08T07:41:50;33.50;;;17.80;;
18793;SDS011;29610;49.022;12.114;2024-03-08T07:44:18;34.80;;;18.10;;
18793;SDS011;29610;49.022;12.114;2024-03-08T07:46:47;33.00;;;17.63;;
18793;SDS011;29610;49.022;12.114;2024-03-08T07:49:15;32.93;;;15.67;;
18793;SDS011;29610;49.022;12.114;2024-03-08T07:51:44;29.63;;;16.10;;
18793;SDS011;29610;49.022;12.114;2024-03-08T07:54:12;25.03;;;14.47;;
18793;SDS011;29610;49.022;12.114;2024-03-08T07:56:42;26.77;;;14.47;;
18793;SDS011;29610;49.022;12.114;2024-03-08T07:59:10;21.87;;;12.20;;
18793;SDS011;29610;49.022;12.114;2024-03-08T08:01:39;19.47;;;11.40;;
18793;SDS011;29610;49.022;12.114;2024-03-08T08:04:07;21.67;;;11.53;;
18793;SDS011;29610;49.022;12.114;2024-03-08T08:06:38;18.03;;;10.70;;
18793;SDS011;29610;49.022;12.114;2024-03-08T08:09:07;20.60;;;11.63;;
18793;SDS011;29610;49.022;12.114;2024-03-08T08:11:41;21.80;;;11.90;;
18793;SDS011;29610;49.022;12.114;2024-03-08T08:14:10;18.47;;;10.40;;
18793;SDS011;29610;49.022;12.114;2024-03-08T08:16:38;22.90;;;11.87;;
18793;SDS011;29610;49.022;12.114;2024-03-08T08:19:08;20.00;;;10.50;;
18793;SDS011;29610;49.022;12.114;2024-03-08T08:21:38;18.03;;;9.83;;
18793;SDS011;29610;49.022;12.114;2024-03-08T08:24:06;21.80;;;11.60;;
18793;SDS011;29610;49.022;12.114;2024-03-08T08:26:35;26.13;;;10.10;;
18793;SDS011;29610;49.022;12.114;2024-03-08T08:29:07;17.80;;;10.50;;
18793;SDS011;29610;49.022;12.114;2024-03-08T08:31:35;19.33;;;10.00;;
18793;SDS011;29610;49.022;12.114;2024-03-08T08:34:03;20.90;;;10.13;;
18793;SDS011;29610;49.022;12.114;2024-03-08T08:36:33;18.33;;;9.20;;
18793;SDS011;29610;49.022;12.114;2024-03-08T08:39:01;20.20;;;10.73;;
18793;SDS011;29610;49.022;12.114;2024-03-08T08:41:30;23.87;;;11.10;;
18793;SDS011;29610;49.022;12.114;2024-03-08T08:43:58;19.40;;;9.73;;
18793;SDS011;29610;49.022;12.114;2024-03-08T08:46:42;19.03;;;11.30;;
18793;SDS011;29610;49.022;12.114;2024-03-08T08:49:10;20.80;;;9.97;;
18793;SDS011;29610;49.022;12.114;2024-03-08T08:51:41;18.90;;;10.10;;
18793;SDS011;29610;49.022;12.114;2024-03-08T08:54:09;17.00;;;9.43;;
18793;SDS011;29610;49.022;12.114;2024-03-08T08:56:40;20.53;;;10.97;;
18793;SDS011;29610;49.022;12.114;2024-03-08T08:59:10;19.00;;;10.50;;
18793;SDS011;29610;49.022;12.114;2024-03-08T09:01:40;21.23;;;10.70;;
18793;SDS011;29610;49.022;12.114;2024-03-08T09:04:09;20.33;;;11.00;;
18793;SDS011;29610;49.022;12.114;2024-03-08T09:06:38;20.20;;;10.60;;
18793;SDS011;29610;49.022;12.114;2024-03-08T09:09:07;23.20;;;12.20;;
18793;SDS011;29610;49.022;12.114;2024-03-08T09:11:37;18.07;;;10.23;;
18793;SDS011;29610;49.022;12.114;2024-03-08T09:14:08;20.50;;;10.80;;
18793;SDS011;29610;49.022;12.114;2024-03-08T09:16:38;20.40;;;10.97;;
18793;SDS011;29610;49.022;12.114;2024-03-08T09:19:07;24.53;;;9.70;;
18793;SDS011;29610;49.022;12.114;2024-03-08T09:21:38;19.40;;;11.13;;
18793;SDS011;29610;49.022;12.114;2024-03-08T09:24:07;18.87;;;10.57;;
18793;SDS011;29610;49.022;12.114;2024-03-08T09:26:35;19.87;;;10.90;;
18793;SDS011;29610;49.022;12.114;2024-03-08T09:29:03;23.17;;;10.13;;
18793;SDS011;29610;49.022;12.114;2024-03-08T09:31:33;21.23;;;11.40;;
18793;SDS011;29610;49.022;12.114;2024-03-08T09:34:01;18.90;;;9.13;;
18793;SDS011;29610;49.022;12.114;2024-03-08T09:36:29;23.30;;;9.60;;
18793;SDS011;29610;49.022;12.114;2024-03-08T09:39:00;17.50;;;9.20;;
18793;SDS011;29610;49.022;12.114;2024-03-08T09:41:29;21.00;;;10.43;;
18793;SDS011;29610;49.022;12.114;2024-03-08T09:43:57;16.07;;;8.97;;
18793;SDS011;29610;49.022;12.114;2024-03-08T09:46:27;20.30;;;11.03;;
18793;SDS011;29610;49.022;12.114;2024-03-08T09:48:55;23.47;;;11.93;;
18793;SDS011;29610;49.022;12.114;2024-03-08T09:51:25;22.00;;;10.30;;
18793;SDS011;29610;49.022;12.114;2024-03-08T09:53:56;19.80;;;10.17;;
18793;SDS011;29610;49.022;12.114;2024-03-08T09:56:31;19.37;;;10.20;;
18793;SDS011;29610;49.022;12.114;2024-03-08T09:59:00;15.90;;;8.60;;
18793;SDS011;29610;49.022;12.114;2024-03-08T10:01:45;18.57;;;9.73;;
18793;SDS011;29610;49.022;12.114;2024-03-08T10:04:14;20.57;;;10.23;;
18793;SDS011;29610;49.022;12.114;2024-03-08T10:06:43;20.80;;;10.60;;
18793;SDS011;29610;49.022;12.114;2024-03-08T10:09:13;18.50;;;10.77;;
18793;SDS011;29610;49.022;12.114;2024-03-08T10:11:44;18.17;;;9.97;;
18793;SDS011;29610;49.022;12.114;2024-03-08T10:14:13;17.90;;;9.60;;
18793;SDS011;29610;49.022;12.114;2024-03-08T10:16:44;17.23;;;9.83;;
18793;SDS011;29610;49.022;12.114;2024-03-08T10:19:13;17.60;;;10.03;;
18793;SDS011;29610;49.022;12.114;2024-03-08T10:21:48;19.20;;;10.13;;
18793;SDS011;29610;49.022;12.114;2024-03-08T10:24:18;20.73;;;9.80;;
18793;SDS011;29610;49.022;12.114;2024-03-08T10:26:48;18.17;;;9.47;;
18793;SDS011;29610;49.022;12.114;2024-03-08T10:29:19;17.80;;;9.80;;
18793;SDS011;29610;49.022;12.114;2024-03-08T10:31:47;18.20;;;8.47;;
18793;SDS011;29610;49.022;12.114;2024-03-08T10:34:16;22.03;;;10.20;;
18793;SDS011;29610;49.022;12.114;2024-03-08T10:36:46;19.80;;;10.60;;
18793;SDS011;29610;49.022;12.114;2024-03-08T10:39:21;18.40;;;9.37;;
18793;SDS011;29610;49.022;12.114;2024-03-08T10:41:56;17.23;;;8.40;;
18793;SDS011;29610;49.022;12.114;2024-03-08T10:44:32;18.70;;;9.87;;
18793;SDS011;29610;49.022;12.114;2024-03-08T10:47:18;15.30;;;8.80;;
18793;SDS011;29610;49.022;12.114;2024-03-08T10:49:59;17.40;;;9.00;;
18793;SDS011;29610;49.022;12.114;2024-03-08T10:52:39;18.67;;;8.40;;
18793;SDS011;29610;49.022;12.114;2024-03-08T10:55:08;17.40;;;8.80;;
18793;SDS011;29610;49.022;12.114;2024-03-08T10:57:41;16.27;;;9.60;;
18793;SDS011;29610;49.022;12.114;2024-03-08T11:00:10;16.67;;;9.20;;
18793;SDS011;29610;49.022;12.114;2024-03-08T11:02:43;16.23;;;8.30;;
18793;SDS011;29610;49.022;12.114;2024-03-08T11:05:13;16.97;;;9.20;;
18793;SDS011;29610;49.022;12.114;2024-03-08T11:08:01;18.00;;;8.87;;
18793;SDS011;29610;49.022;12.114;2024-03-08T11:10:31;17.40;;;9.27;;
18793;SDS011;29610;49.022;12.114;2024-03-08T11:13:01;17.97;;;9.00;;
18793;SDS011;29610;49.022;12.114;2024-03-08T11:15:29;20.10;;;9.27;;
18793;SDS011;29610;49.022;12.114;2024-03-08T11:17:58;18.83;;;8.57;;
18793;SDS011;29610;49.022;12.114;2024-03-08T11:20:28;16.23;;;8.63;;
18793;SDS011;29610;49.022;12.114;2024-03-08T11:23:00;17.33;;;8.27;;
18793;SDS011;29610;49.022;12.114;2024-03-08T11:25:36;15.40;;;9.23;;
18793;SDS011;29610;49.022;12.114;2024-03-08T11:28:10;14.93;;;7.73;;
18793;SDS011;29610;49.022;12.114;2024-03-08T11:30:44;14.33;;;8.10;;
18793;SDS011;29610;49.022;12.114;2024-03-08T11:33:14;16.67;;;8.43;;
18793;SDS011;29610;49.022;12.114;2024-03-08T11:35:45;15.30;;;7.30;;
18793;SDS011;29610;49.022;12.114;2024-03-08T11:38:14;15.30;;;8.30;;
18793;SDS011;29610;49.022;12.114;2024-03-08T11:40:43;21.80;;;9.00;;
18793;SDS011;29610;49.022;12.114;2024-03-08T11:43:17;16.63;;;8.70;;
18793;SDS011;29610;49.022;12.114;2024-03-08T11:45:46;16.23;;;8.27;;
18793;SDS011;29610;49.022;12.114;2024-03-08T11:48:14;15.20;;;7.77;;
18793;SDS011;29610;49.022;12.114;2024-03-08T11:50:43;16.77;;;8.50;;
18793;SDS011;29610;49.022;12.114;2024-03-08T11:53:11;13.30;;;8.00;;
18793;SDS011;29610;49.022;12.114;2024-03-08T11:55:40;15.37;;;8.60;;
18793;SDS011;29610;49.022;12.114;2024-03-08T11:58:08;13.70;;;7.70;;
18793;SDS011;29610;49.022;12.114;2024-03-08T12:00:40;14.50;;;8.50;;
18793;SDS011;29610;49.022;12.114;2024-03-08T12:03:09;16.03;;;8.60;;
18793;SDS011;29610;49.022;12.114;2024-03-08T12:05:37;14.70;;;8.50;;
18793;SDS011;29610;49.022;12.114;2024-03-08T12:08:05;13.40;;;7.07;;
18793;SDS011;29610;49.022;12.114;2024-03-08T12:10:35;15.10;;;7.37;;
18793;SDS011;29610;49.022;12.114;2024-03-08T12:13:04;11.97;;;7.27;;
18793;SDS011;29610;49.022;12.114;2024-03-08T12:15:40;14.20;;;7.70;;
18793;SDS011;29610;49.022;12.114;2024-03-08T12:18:10;14.30;;;8.03;;
18793;SDS011;29610;49.022;12.114;2024-03-08T12:20:39;12.57;;;7.50;;
18793;SDS011;29610;49.022;12.114;2024-03-08T12:23:13;13.30;;;7.57;;
18793;SDS011;29610;49.022;12.114;2024-03-08T12:25:43;14.53;;;7.00;;
18793;SDS011;29610;49.022;12.114;2024-03-08T12:28:11;15.30;;;8.60;;
18793;SDS011;29610;49.022;12.114;2024-03-08T12:30:47;13.37;;;7.53;;
18793;SDS011;29610;49.022;12.114;2024-03-08T12:33:17;11.30;;;6.60;;
18793;SDS011;29610;49.022;12.114;2024-03-08T12:35:51;15.13;;;7.60;;
18793;SDS011;29610;49.022;12.114;2024-03-08T12:38:22;13.50;;;7.93;;
18793;SDS011;29610;49.022;12.114;2024-03-08T12:40:55;12.80;;;7.30;;
18793;SDS011;29610;49.022;12.114;2024-03-08T12:43:25;15.10;;;7.60;;
18793;SDS011;29610;49.022;12.114;2024-03-08T12:45:58;12.37;;;6.37;;
18793;SDS011;29610;49.022;12.114;2024-03-08T12:48:26;15.30;;;8.60;;
18793;SDS011;29610;49.022;12.114;2024-03-08T12:50:54;13.30;;;7.60;;
18793;SDS011;29610;49.022;12.114;2024-03-08T12:53:22;11.37;;;6.10;;
18793;SDS011;29610;49.022;12.114;2024-03-08T12:55:52;10.50;;;6.13;;
18793;SDS011;29610;49.022;12.114;2024-03-08T12:58:22;11.17;;;6.10;;
18793;SDS011;29610;49.022;12.114;2024-03-08T13:00:52;11.37;;;5.70;;
18793;SDS011;29610;49.022;12.114;2024-03-08T13:03:22;11.57;;;6.57;;
18793;SDS011;29610;49.022;12.114;2024-03-08T13:05:50;10.43;;;5.60;;
18793;SDS011;29610;49.022;12.114;2024-03-08T13:08:18;10.00;;;5.57;;
18793;SDS011;29610;49.022;12.114;2024-03-08T13:10:48;12.07;;;6.40;;
18793;SDS011;29610;49.022;12.114;2024-03-08T13:13:17;10.07;;;5.40;;
18793;SDS011;29610;49.022;12.114;2024-03-08T13:15:45;11.60;;;5.83;;
18793;SDS011;29610;49.022;12.114;2024-03-08T13:18:15;12.30;;;6.10;;
18793;SDS011;29610;49.022;12.114;2024-03-08T13:20:45;11.70;;;6.30;;
18793;SDS011;29610;49.022;12.114;2024-03-08T13:23:15;11.20;;;5.67;;
18793;SDS011;29610;49.022;12.114;2024-03-08T13:25:44;11.77;;;6.10;;
18793;SDS011;29610;49.022;12.114;2024-03-08T13:28:14;11.87;;;5.33;;
18793;SDS011;29610;49.022;12.114;2024-03-08T13:30:44;11.47;;;5.37;;
18793;SDS011;29610;49.022;12.114;2024-03-08T13:33:12;12.07;;;5.70;;
18793;SDS011;29610;49.022;12.114;2024-03-08T13:35:41;16.00;;;7.20;;
18793;SDS011;29610;49.022;12.114;2024-03-08T13:38:10;12.60;;;6.63;;
18793;SDS011;29610;49.022;12.114;2024-03-08T13:40:39;10.83;;;5.90;;
18793;SDS011;29610;49.022;12.114;2024-03-08T13:43:07;10.80;;;5.43;;
18793;SDS011;29610;49.022;12.114;2024-03-08T13:45:36;9.73;;;5.37;;
18793;SDS011;29610;49.022;12.114;2024-03-08T13:48:07;13.27;;;6.80;;
18793;SDS011;29610;49.022;12.114;2024-03-08T13:50:39;10.20;;;5.80;;
18793;SDS011;29610;49.022;12.114;2024-03-08T13:53:07;11.43;;;6.03;;
18793;SDS011;29610;49.022;12.114;2024-03-08T13:55:37;13.17;;;7.40;;
18793;SDS011;29610;49.022;12.114;2024-03-08T13:58:07;11.43;;;6.03;;
18793;SDS011;29610;49.022;12.114;2024-03-08T14:00:36;9.13;;;4.50;;
18793;SDS011;29610;49.022;12.114;2024-03-08T14:03:04;13.10;;;6.00;;
18793;SDS011;29610;49.022;12.114;2024-03-08T14:05:32;11.03;;;5.27;;
18793;SDS011;29610;49.022;12.114;2024-03-08T14:08:01;12.20;;;5.87;;
18793;SDS011;29610;49.022;12.114;2024-03-08T14:10:33;11.40;;;6.03;;
18793;SDS011;29610;49.022;12.114;2024-03-08T14:13:05;9.83;;;5.10;;
18793;SDS011;29610;49.022;12.114;2024-03-08T14:15:34;10.20;;;4.70;;
18793;SDS011;29610;49.022;12.114;2024-03-08T14:18:03;11.43;;;5.90;;
18793;SDS011;29610;49.022;12.114;2024-03-08T14:20:33;10.40;;;5.33;;
18793;SDS011;29610;49.022;12.114;2024-03-08T14:23:01;11.30;;;5.77;;
18793;SDS011;29610;49.022;12.114;2024-03-08T14:25:32;9.60;;;5.03;;
18793;SDS011;29610;49.022;12.114;2024-03-08T14:28:01;10.03;;;4.80;;